KQFT

Yangsu-ri

Yangsu-ri, South Korea
METAR KQFT 141250Z AUTO 16001KT 9999 FEW240 M08/M11 A3058 RMK A02 TSNO
Observed Flight Rules
Dec-14 @ 12:50 UTC (15 minutes ago) Visual Flight Rules
Wind Visibility Clouds
160° at 1 knots 10,000+ meters
  • Few at 24,000' AGL
Temperatures Readings
Current -8°C / 18°F
Dewpoint -11°C / 12°F
Humidity 79%
Altimeter 30.58" Hg
Pressure 1036 hPa
METAR KQFT 141250Z AUTO 16001KT 9999 FEW240 M08/M11 A3058 RMK A02 TSNO
Observed Flight Rules
Dec-14 @ 12:50 UTC
(15 minutes ago)
VFR
Wind Visibility
160° at 1 knots 10,000+ meters
Clouds
  • Few at 24,000' AGL
Temperature Dewpoint
-8°C / 18°F -11°C / 12°F
Humidity Altimeter Pressure
79% 30.58" Hg 1036 hPa